CPG4 weather

Elmira (East) Airport
Elmira, Ontario, Canada

Public forecast

Using degrees Celsius for public forecast. Weather courtesy of forecast.io.

Closest aviation weather report (METAR) to Elmira (East) Airport

Closest report is Waterloo Airport, 9.8 nm (18.1 km) SE. Retrieved 2019/10/16 15:00 UTC (31 minutes ago):

CYKF 161500Z AUTO 18014G19KT 9SM -RA FEW010 BKN039 OVC055 09/08 A2955 RMK SLP012

Closest aviation forecast (TAF) to Elmira (East) Airport

Closest forecast is Waterloo Airport, 9.8 nm (18.1 km) SE. Retrieved 2019/10/16 14:42 UTC (49 minutes ago):

TAF CYKF 161338Z 1614/1702 24008KT 2SM SHRA BR OVC015 TEMPO 1614/1616 6SM -SHRA BR SCT015 OVC025 FM161600 24010G20KT P6SM FEW008 BKN015 TEMPO 1616/1619 BKN025 FM161900 24010G20KT P6SM BKN020 TEMPO 1619/1624 P6SM -SHRA BKN025 FM170000 27015G30KT P6SM OVC012 TEMPO 1700/1702 6SM -SHRA BR OVC008 BECMG 1700/1702 30015G30KT RMK FCST BASED ON AUTO OBS NXT FCST BY 162000Z